• Join FlightAware (Why Join?)
  • Login
  • US Flag 
03:44AM EST


 

Airport Tracker/Info


-or-


 

Live Flight TrackerFlight Track Log ✈ SWA2068 ✈ 06-Jul-2013 ✈ KBNA - KBWI

Flight Track Log - Related Links

Times and Time Zones

All times are in EDT time to prevent confusion due to time zone crossing. See the SWA2068 flight status page for this flight to view local times or setup timezone preferences in your user account.

Time Position Orientation Groundspeed Altitude Reporting Facility
EDT Latitude Longitude Course Direction KTS MPH feet Rate Location/Type
07:15AM 36.1333 -86.6833 292° West 159 183 1,400  Level Nashville TRACON
07:16AM 36.1500 -86.7333 292° West 189 217 2,900 2,280 Climbing Nashville TRACON
07:17AM 36.2000 -86.7167 15° North 285 328 5,600 3,240 Climbing Nashville TRACON
07:18AM 36.1925 -86.6433 97° East 407 468 8,600 3,780 Climbing Memphis Center
07:19AM 36.1936 -86.5378 89° East 348 400 12,200 3,840 Climbing Memphis Center
07:20AM 36.1961 -86.4169 88° East 338 389 16,300 3,600 Climbing Memphis Center
07:21AM 36.1961 -86.2908 90° East 357 411 19,400 3,000 Climbing Memphis Center
07:22AM 36.1978 -86.1572 89° East 372 428 22,400 2,580 Climbing Memphis Center
07:23AM 36.2206 -86.0247 78° East 393 452 24,600 2,100 Climbing Memphis Center
07:24AM 36.2983 -85.8508 61° Northeast 443 510 27,500 2,100 Climbing Indianapolis Center
07:25AM 36.3675 -85.7017 60° Northeast 455 524 29,700 1,920 Climbing Indianapolis Center
07:26AM 36.4361 -85.5597 59° Northeast 473 544 31,500 1,680 Climbing Indianapolis Center
07:27AM 36.5061 -85.4131 59° Northeast 488 562 33,200 1,800 Climbing Indianapolis Center
07:28AM 36.5758 -85.2628 60° Northeast 497 572 35,200 1,740 Climbing Indianapolis Center
07:29AM 36.6367 -85.1103 64° Northeast 497 572 36,800 1,800 Climbing Indianapolis Center
07:30AM 36.6856 -84.9528 69° East 487 560 38,900 1,680 Climbing Indianapolis Center
07:31AM 36.7331 -84.7972 69° East 478 550 40,300 1,020 Climbing Indianapolis Center
07:32AM 36.7792 -84.6408 70° East 480 552 41,000 300 Climbing Indianapolis Center
07:33AM 36.8239 -84.4925 69° East 477 549 41,000  Level Indianapolis Center
07:34AM 36.8719 -84.3364 69° East 480 552 41,000  Level Indianapolis Center
07:35AM 36.9178 -84.1794 70° East 479 551 41,000  Level Indianapolis Center
07:37AM 36.9642 -84.0244 69° East 476 548 41,000  Level Indianapolis Center
07:38AM 37.0108 -83.8689 69° East 476 548 41,000  Level Indianapolis Center
07:39AM 37.0642 -83.6881 70° East 474 545 41,000  Level Indianapolis Center
07:40AM 37.1086 -83.5372 70° East 464 534 41,000  Level Indianapolis Center
07:41AM 37.1522 -83.3853 70° East 461 531 41,000  Level Indianapolis Center
07:42AM 37.1969 -83.2331 70° East 462 532 41,000  Level Indianapolis Center
07:43AM 37.2411 -83.0792 70° East 464 534 41,000  Level Indianapolis Center
07:44AM 37.2853 -82.9250 70° East 464 534 41,000  Level Indianapolis Center
07:45AM 37.3300 -82.7703 70° East 466 536 41,000  Level Indianapolis Center
07:46AM 37.3736 -82.6156 70° East 468 539 41,000  Level Indianapolis Center
07:47AM 37.4164 -82.4636 70° East 462 532 41,000  Level Indianapolis Center
07:48AM 37.4592 -82.3097 71° East 463 533 41,000  Level Indianapolis Center
07:49AM 37.5017 -82.1572 71° East 462 532 41,000  Level Indianapolis Center
07:50AM 37.5444 -82.0031 71° East 465 535 41,000  Level Indianapolis Center
07:51AM 37.5861 -81.8486 71° East 465 535 41,000  Level Indianapolis Center
07:52AM 37.6283 -81.6939 71° East 466 536 41,000  Level Indianapolis Center
07:53AM 37.6700 -81.5403 71° East 462 532 41,000  Level Indianapolis Center
07:54AM 37.7111 -81.3900 71° East 463 533 41,000  Level Indianapolis Center
07:55AM 37.7600 -81.2114 71° East 462 532 41,000  Level Indianapolis Center
07:56AM 37.8017 -81.0639 70° East 459 528 41,000  Level Indianapolis Center
07:57AM 37.8461 -80.9022 71° East 463 533 41,000  Level Indianapolis Center
07:58AM 37.8897 -80.7472 70° East 464 534 41,000  Level Indianapolis Center
07:59AM 37.9308 -80.5964 71° East 463 533 41,000  Level Indianapolis Center
08:00AM 37.9744 -80.4342 71° East 465 535 41,000  Level Indianapolis Center
08:01AM 38.0161 -80.2825 71° East 467 537 41,000  Level Indianapolis Center
08:02AM 38.0575 -80.1308 71° East 467 537 41,000  Level Indianapolis Center
08:03AM 38.0992 -79.9800 71° East 465 535 41,000  Level Indianapolis Center
08:04AM 38.1381 -79.8267 72° East 466 536 41,000  Level Indianapolis Center
08:05AM 38.1867 -79.6453 71° East 462 532 41,000  Level Indianapolis Center
08:06AM 38.2267 -79.4939 71° East 462 532 41,000 -1,380 Level Indianapolis Center
08:07AM 38.2783 -79.3081 70° East 456 525 38,000 -3,060 Descending Washington Center
08:08AM 38.3164 -79.1564 72° East 456 525 34,400 -3,900 Descending Washington Center
08:09AM 38.3539 -79.0178 71° East 461 531 30,300 -3,780 Descending Washington Center
08:10AM 38.3917 -78.8581 73° East 461 531 27,000 -1,680 Descending Washington Center
08:11AM 38.4286 -78.7164 72° East 441 507 27,000  Level Washington Center
08:12AM 38.4636 -78.5747 72° East 428 493 27,000  Level Washington Center
08:13AM 38.4983 -78.4331 73° East 417 480 27,000 -900 Level Washington Center
08:14AM 38.5350 -78.2908 72° East 417 480 25,200 -1,980 Descending Washington Center
08:15AM 38.5672 -78.1542 73° East 417 480 23,100 -2,100 Descending Washington Center
08:16AM 38.6011 -78.0225 72° East 407 468 21,100 -1,980 Descending Washington Center
08:17AM 38.6350 -77.8881 72° East 394 453 19,200 -1,080 Descending Washington Center
08:18AM 38.6458 -77.7608 84° East 377 434 19,000 -120 Descending Washington Center
08:19AM 38.6542 -77.6333 85° East 365 420 19,000 -540 Level Washington Center
08:20AM 38.6606 -77.5058 86° East 360 414 18,000 -1,440 Descending Washington Center
08:21AM 38.6686 -77.3839 85° East 349 402 16,100 -1,380 Descending Washington Center
08:22AM 38.6767 -77.2642 85° East 344 396 15,400 -1,140 Descending Washington Center
08:23AM 38.6822 -77.1528 86° East 333 383 13,900 -1,620 Descending Washington Center
08:24AM 38.6878 -77.0386 86° East 326 375 12,200 -1,260 Descending Washington Center
08:25AM 38.6953 -76.9269 85° East 321 369 11,400 -1,080 Descending Washington Center
08:26AM 38.7008 -76.8181 86° East 316 364 10,100 -1,320 Descending Washington Center
08:28AM 38.7667 -76.6000 69° East 278 320 7,300 -1,500 Descending Potomac TRACON
08:29AM 38.8167 -76.5333 46° Northeast 284 327 5,500 -1,620 Descending Potomac TRACON
08:30AM 38.8833 -76.5333 360° North 273 314 4,300 -1,200 Descending Potomac TRACON
08:31AM 38.9500 -76.5500 349° North 257 296 3,300 -780 Descending Potomac TRACON
08:32AM 39.0167 -76.5667 349° North 225 259 2,800 -540 Descending Potomac TRACON
08:33AM 39.0667 -76.5833 345° North 184 212 2,300 -720 Descending Potomac TRACON
08:34AM 39.1000 -76.6167 322° Northwest 149 171 1,500 -780 Descending Potomac TRACON
08:35AM 39.1333 -76.6333 339° North 130 150 800 -720 Descending Potomac TRACON
08:37AM 39.1667 -76.6667 339° North  Level FlightAware Approximate
08:44AM 39.1754 -76.6683 339° North  Level Estimated
08:45AM 39.1754 -76.6683 339° North  Level Estimated
08:46AM 39.1754 -76.6683 339° North  Level Estimated
08:47AM 39.1754 -76.6683 339° North  Level Estimated
08:48AM 39.1754 -76.6683 339° North  Level Estimated